createdAt,value
2023-02-24T00:00:45.405Z,14.60
2023-02-24T00:02:51.098Z,13.90
2023-02-24T00:04:55.930Z,13.60
2023-02-24T00:07:03.533Z,14.50
2023-02-24T00:09:10.650Z,14.10
2023-02-24T00:11:18.014Z,13.90
2023-02-24T00:13:23.030Z,13.70
2023-02-24T00:15:27.870Z,13.80
2023-02-24T00:17:32.537Z,14.20
2023-02-24T00:19:37.966Z,15.30
2023-02-24T00:21:46.367Z,14.10
2023-02-24T00:23:51.062Z,14.20
2023-02-24T00:26:02.001Z,14.50
2023-02-24T00:28:06.848Z,14.00
2023-02-24T00:30:13.268Z,14.40
2023-02-24T00:32:18.174Z,13.70
2023-02-24T00:34:23.126Z,13.70
2023-02-24T00:36:29.804Z,13.90
2023-02-24T00:38:34.734Z,14.50
2023-02-24T00:40:39.465Z,14.70
2023-02-24T00:42:44.177Z,14.30
2023-02-24T00:44:48.992Z,14.30
2023-02-24T00:46:53.632Z,14.10
2023-02-24T00:48:58.331Z,14.70
2023-02-24T00:51:03.881Z,14.30
2023-02-24T00:53:08.636Z,15.00
2023-02-24T00:55:13.991Z,13.60
2023-02-24T00:57:18.832Z,14.00
2023-02-24T00:59:23.520Z,13.80
2023-02-24T01:01:30.446Z,14.40
2023-02-24T01:03:37.710Z,14.50
2023-02-24T01:05:42.384Z,14.30
2023-02-24T01:07:47.170Z,14.60
2023-02-24T01:09:51.944Z,13.90
2023-02-24T01:11:57.518Z,14.80
2023-02-24T01:14:03.908Z,14.80
2023-02-24T01:16:09.231Z,14.10
2023-02-24T01:18:13.927Z,15.00
2023-02-24T01:20:18.955Z,14.30
2023-02-24T01:22:23.834Z,14.20
2023-02-24T01:24:30.598Z,14.50
2023-02-24T01:26:35.285Z,14.40
2023-02-24T01:28:40.008Z,14.30
2023-02-24T01:30:44.910Z,15.40
2023-02-24T01:32:49.791Z,14.70
2023-02-24T01:34:57.483Z,15.00
2023-02-24T01:37:02.247Z,14.70
2023-02-24T01:39:10.334Z,15.00
2023-02-24T01:41:19.602Z,15.00
2023-02-24T01:43:24.567Z,14.80
2023-02-24T01:45:30.524Z,14.50
2023-02-24T01:47:35.254Z,15.20
2023-02-24T01:49:43.791Z,14.90
2023-02-24T01:51:52.049Z,15.20
2023-02-24T01:53:57.039Z,15.50
2023-02-24T01:56:01.773Z,15.50
2023-02-24T01:58:10.930Z,15.60
2023-02-24T02:00:17.891Z,15.20
2023-02-24T02:02:23.876Z,14.70
2023-02-24T02:04:34.793Z,14.90
2023-02-24T02:06:42.184Z,15.00
2023-02-24T02:08:47.180Z,15.20
2023-02-24T02:10:53.027Z,15.10
2023-02-24T02:12:57.865Z,15.30
2023-02-24T02:15:06.570Z,15.40
2023-02-24T02:17:21.119Z,16.00
2023-02-24T02:19:57.113Z,15.00
2023-02-24T02:22:13.969Z,15.50
2023-02-24T02:24:26.714Z,15.80
2023-02-24T02:27:25.196Z,15.80
2023-02-24T02:29:55.788Z,16.00
2023-02-24T02:32:36.011Z,16.00
2023-02-24T02:34:49.836Z,14.80
2023-02-24T02:37:03.271Z,15.60
2023-02-24T02:39:16.186Z,15.50
2023-02-24T02:41:26.025Z,15.60
2023-02-24T02:43:37.776Z,15.70
2023-02-24T02:45:48.545Z,16.30
2023-02-24T02:47:57.518Z,16.20
2023-02-24T02:50:07.948Z,16.50
2023-02-24T02:52:16.872Z,16.40
2023-02-24T02:54:28.200Z,16.40
2023-02-24T02:56:37.235Z,16.30
2023-02-24T02:58:46.712Z,16.40
2023-02-24T03:00:59.317Z,16.70
2023-02-24T03:03:10.366Z,18.20
2023-02-24T03:05:20.280Z,16.80
2023-02-24T03:07:28.528Z,18.20
2023-02-24T03:09:40.773Z,18.40
2023-02-24T03:11:47.946Z,18.20
2023-02-24T03:13:56.201Z,18.10
2023-02-24T03:16:03.335Z,18.40
2023-02-24T03:18:10.998Z,17.80
2023-02-24T03:20:21.009Z,17.40
2023-02-24T03:22:32.573Z,17.70
2023-02-24T03:24:37.737Z,17.90
2023-02-24T03:26:47.459Z,17.60
2023-02-24T03:28:58.268Z,18.30
2023-02-24T03:31:07.609Z,17.40
2023-02-24T03:33:20.061Z,17.30
2023-02-24T03:35:29.009Z,18.30
2023-02-24T03:37:33.978Z,17.90
2023-02-24T03:39:38.847Z,17.90
2023-02-24T03:41:54.498Z,17.80
2023-02-24T03:44:01.843Z,18.20
2023-02-24T03:46:07.703Z,17.20
2023-02-24T03:48:13.359Z,18.00
2023-02-24T03:50:20.020Z,18.00
2023-02-24T03:52:39.100Z,17.90
2023-02-24T03:55:08.639Z,18.20
2023-02-24T03:57:23.795Z,17.80
2023-02-24T03:59:41.791Z,17.10
2023-02-24T04:01:51.968Z,17.10
2023-02-24T04:04:03.234Z,18.20
2023-02-24T04:06:18.996Z,17.90
2023-02-24T04:08:28.079Z,17.30
2023-02-24T04:10:39.307Z,16.90
2023-02-24T04:12:50.469Z,17.40
2023-02-24T04:15:02.207Z,16.90
2023-02-24T04:17:12.887Z,16.90
2023-02-24T04:19:21.510Z,17.30
2023-02-24T04:21:29.515Z,17.10
2023-02-24T04:23:38.902Z,16.50
2023-02-24T04:25:47.645Z,17.30
2023-02-24T04:27:53.831Z,17.10
2023-02-24T04:30:01.775Z,17.40
2023-02-24T04:32:09.894Z,16.20
2023-02-24T04:34:14.815Z,17.10
2023-02-24T04:36:21.120Z,17.70
2023-02-24T04:38:26.062Z,17.30
2023-02-24T04:40:30.897Z,17.70
2023-02-24T04:42:35.546Z,17.00
2023-02-24T04:44:40.172Z,17.30
2023-02-24T04:46:45.069Z,17.10
2023-02-24T04:48:49.732Z,17.00
2023-02-24T04:50:54.398Z,16.90
2023-02-24T04:53:00.624Z,17.40
2023-02-24T04:55:09.940Z,17.40
2023-02-24T04:57:14.713Z,17.30
2023-02-24T04:59:20.039Z,17.90
2023-02-24T05:01:24.775Z,17.30
2023-02-24T05:03:29.438Z,17.10
2023-02-24T05:05:34.406Z,17.40
2023-02-24T05:07:39.078Z,17.60
2023-02-24T05:09:43.703Z,17.90
2023-02-24T05:11:49.785Z,18.10
2023-02-24T05:13:54.467Z,17.50
2023-02-24T05:16:04.058Z,18.70
2023-02-24T05:18:11.557Z,18.10
2023-02-24T05:20:16.257Z,18.20
2023-02-24T05:22:20.879Z,17.90
2023-02-24T05:24:25.642Z,17.20
2023-02-24T05:26:32.885Z,16.80
2023-02-24T05:28:38.265Z,17.40
2023-02-24T05:30:42.981Z,16.60
2023-02-24T05:32:47.809Z,16.30
2023-02-24T05:34:52.496Z,16.40
2023-02-24T05:36:57.864Z,16.70
2023-02-24T05:39:02.746Z,16.30
2023-02-24T05:41:08.986Z,16.90
2023-02-24T05:43:13.648Z,16.50
2023-02-24T05:45:18.591Z,17.10
2023-02-24T05:47:23.232Z,16.40
2023-02-24T05:49:29.826Z,15.90
2023-02-24T05:51:35.972Z,16.80
2023-02-24T05:53:40.751Z,16.80
2023-02-24T05:55:45.434Z,16.30
2023-02-24T05:57:50.098Z,17.40
2023-02-24T05:59:54.692Z,17.10
2023-02-24T06:02:00.528Z,17.20
2023-02-24T06:04:06.817Z,17.10
2023-02-24T06:06:11.521Z,17.30
2023-02-24T06:08:16.186Z,18.00
2023-02-24T06:10:21.018Z,18.40
2023-02-24T06:12:27.163Z,18.50
2023-02-24T06:14:34.942Z,17.30
2023-02-24T06:16:41.808Z,17.30
2023-02-24T06:18:49.098Z,17.00
2023-02-24T06:20:53.796Z,16.00
2023-02-24T06:22:58.560Z,16.40
2023-02-24T06:25:03.334Z,16.30
2023-02-24T06:27:07.928Z,16.50
2023-02-24T06:29:15.934Z,15.30
2023-02-24T06:31:20.809Z,15.30
2023-02-24T06:33:25.709Z,15.80
2023-02-24T06:35:30.270Z,15.70
2023-02-24T06:37:34.853Z,16.40
2023-02-24T06:39:39.831Z,16.80
2023-02-24T06:41:44.912Z,24.30
2023-02-24T06:43:49.573Z,19.40
2023-02-24T06:45:54.225Z,17.80
2023-02-24T06:47:58.886Z,17.10
2023-02-24T06:50:03.561Z,16.80
2023-02-24T06:52:08.288Z,17.70
2023-02-24T06:54:12.914Z,17.30
2023-02-24T06:56:18.544Z,17.40
2023-02-24T06:58:23.606Z,17.10
2023-02-24T07:00:30.982Z,20.60
2023-02-24T07:02:37.117Z,20.90
2023-02-24T07:04:42.213Z,20.60
2023-02-24T07:06:49.504Z,18.20
2023-02-24T07:08:55.179Z,17.40
2023-02-24T07:11:00.125Z,17.10
2023-02-24T07:13:04.762Z,16.60
2023-02-24T07:15:10.637Z,17.30
2023-02-24T07:17:16.202Z,17.40
2023-02-24T07:19:22.519Z,16.20
2023-02-24T07:21:27.845Z,16.60
2023-02-24T07:23:32.745Z,17.30
2023-02-24T07:25:37.386Z,16.80
2023-02-24T07:27:42.028Z,16.30
2023-02-24T07:29:46.927Z,16.40
2023-02-24T07:31:52.953Z,15.80
2023-02-24T07:33:58.000Z,16.10
2023-02-24T07:36:02.629Z,16.30
2023-02-24T07:38:08.339Z,15.90
2023-02-24T07:40:14.800Z,15.30
2023-02-24T07:42:19.549Z,16.70
2023-02-24T07:44:27.739Z,16.10
2023-02-24T07:46:32.537Z,16.20
2023-02-24T07:48:37.772Z,15.30
2023-02-24T07:50:43.470Z,16.40
2023-02-24T07:52:49.268Z,15.50
2023-02-24T07:54:53.968Z,15.70
2023-02-24T07:56:59.253Z,16.20
2023-02-24T07:59:05.414Z,16.50
2023-02-24T08:01:10.093Z,15.50
2023-02-24T08:03:15.128Z,16.20
2023-02-24T08:05:19.884Z,15.70
2023-02-24T08:07:25.489Z,16.00
2023-02-24T08:09:32.105Z,16.30
2023-02-24T08:11:36.851Z,16.10
2023-02-24T08:13:41.485Z,15.80
2023-02-24T08:15:46.188Z,15.00
2023-02-24T08:17:51.149Z,14.80
2023-02-24T08:19:56.473Z,15.80
2023-02-24T08:22:02.041Z,14.00
2023-02-24T08:24:13.344Z,15.00
2023-02-24T08:26:18.175Z,15.30
2023-02-24T08:28:22.832Z,16.10
2023-02-24T08:30:27.900Z,16.20
2023-02-24T08:32:34.402Z,15.80
2023-02-24T08:34:39.337Z,14.50
2023-02-24T08:36:44.056Z,14.70
2023-02-24T08:38:48.874Z,14.90
2023-02-24T08:40:54.443Z,14.40
2023-02-24T08:43:00.448Z,14.00
2023-02-24T08:45:06.465Z,15.60
2023-02-24T08:47:11.250Z,16.40
2023-02-24T08:49:16.290Z,15.30
2023-02-24T08:51:25.050Z,15.60
2023-02-24T08:53:29.773Z,15.40
2023-02-24T08:55:34.449Z,15.90
2023-02-24T08:57:39.144Z,15.80
2023-02-24T08:59:43.817Z,14.80
2023-02-24T09:01:53.371Z,15.40
2023-02-24T09:04:06.745Z,15.00
2023-02-24T09:06:12.272Z,15.50
2023-02-24T09:08:16.919Z,15.10
2023-02-24T09:10:22.153Z,15.20
2023-02-24T09:12:29.460Z,15.30
2023-02-24T09:14:35.213Z,14.70
2023-02-24T09:16:40.068Z,14.40
2023-02-24T09:18:44.754Z,15.10
2023-02-24T09:20:49.469Z,15.00
2023-02-24T09:22:54.906Z,15.10
2023-02-24T09:25:04.988Z,14.30
2023-02-24T09:27:09.766Z,14.80
2023-02-24T09:29:14.889Z,14.10
2023-02-24T09:31:19.827Z,14.80
2023-02-24T09:33:27.153Z,15.20
2023-02-24T09:35:31.890Z,15.20
2023-02-24T09:37:36.646Z,14.40
2023-02-24T09:39:41.293Z,13.70
2023-02-24T09:41:48.363Z,13.50
2023-02-24T09:43:53.152Z,13.30
2023-02-24T09:46:02.807Z,13.00
2023-02-24T09:48:16.823Z,13.40
2023-02-24T09:50:59.084Z,13.60
2023-02-24T09:53:02.896Z,13.00
2023-02-24T09:55:23.314Z,11.70
2023-02-24T09:57:28.182Z,11.60
2023-02-24T09:59:43.614Z,11.40
2023-02-24T10:01:55.190Z,11.80
2023-02-24T10:04:20.226Z,11.40
2023-02-24T10:06:28.718Z,11.00
2023-02-24T10:08:38.304Z,11.50
2023-02-24T10:10:43.825Z,12.20
2023-02-24T10:12:52.780Z,11.90
2023-02-24T10:15:03.108Z,11.70
2023-02-24T10:17:15.301Z,11.30
2023-02-24T10:19:27.477Z,11.00
2023-02-24T10:21:39.228Z,10.90
2023-02-24T10:23:56.754Z,10.60
2023-02-24T10:26:07.182Z,10.20
2023-02-24T10:28:25.681Z,9.80
2023-02-24T10:30:38.312Z,9.70
2023-02-24T10:32:50.754Z,10.00
2023-02-24T10:34:55.529Z,9.40
2023-02-24T10:37:02.118Z,9.00
2023-02-24T10:39:18.064Z,9.20
2023-02-24T10:41:23.642Z,9.20
2023-02-24T10:43:28.864Z,9.00
2023-02-24T10:45:40.930Z,8.60
2023-02-24T10:47:50.242Z,8.60
2023-02-24T10:49:57.381Z,8.80
2023-02-24T10:52:02.198Z,8.10
2023-02-24T10:54:21.213Z,8.20
2023-02-24T10:56:25.959Z,8.20
2023-02-24T10:58:35.301Z,8.60
2023-02-24T11:00:43.906Z,8.50
2023-02-24T11:02:52.210Z,7.80
2023-02-24T11:04:58.235Z,7.90
2023-02-24T11:07:07.321Z,7.60
2023-02-24T11:09:19.666Z,7.40
2023-02-24T11:11:29.979Z,7.50
2023-02-24T11:13:36.595Z,7.10
2023-02-24T11:15:47.957Z,6.80
2023-02-24T11:17:57.217Z,7.10
2023-02-24T11:20:05.296Z,6.90
2023-02-24T11:22:16.271Z,7.50
2023-02-24T11:24:21.004Z,7.30
2023-02-24T11:26:31.999Z,6.90
2023-02-24T11:28:55.778Z,7.20
2023-02-24T11:31:10.504Z,7.10
2023-02-24T11:33:27.553Z,7.50
2023-02-24T11:35:38.229Z,7.10
2023-02-24T11:37:45.905Z,7.50
2023-02-24T11:39:56.177Z,7.40
2023-02-24T11:42:07.964Z,6.50
2023-02-24T11:44:20.652Z,6.30
2023-02-24T11:46:34.372Z,6.20
2023-02-24T11:48:43.045Z,5.20
2023-02-24T11:50:50.784Z,5.50
2023-02-24T11:52:58.504Z,5.50
2023-02-24T11:55:13.606Z,19.90
2023-02-24T11:57:21.583Z,5.80
2023-02-24T11:59:33.590Z,5.50
2023-02-24T12:01:42.969Z,5.50
2023-02-24T12:03:55.647Z,4.50
2023-02-24T12:06:13.910Z,4.30
2023-02-24T12:08:29.104Z,4.10
2023-02-24T12:10:38.801Z,3.50
2023-02-24T12:12:49.058Z,3.30
2023-02-24T12:14:57.371Z,3.70
2023-02-24T12:17:13.366Z,3.40
2023-02-24T12:19:23.852Z,3.00
2023-02-24T12:21:34.018Z,3.60
2023-02-24T12:23:40.772Z,3.70
2023-02-24T12:25:59.832Z,4.50
2023-02-24T12:28:15.408Z,4.50
2023-02-24T12:30:39.084Z,4.80
2023-02-24T12:32:58.633Z,4.70
2023-02-24T12:35:13.436Z,5.40
2023-02-24T12:37:33.992Z,5.40
2023-02-24T12:39:49.063Z,5.80
2023-02-24T12:42:06.235Z,5.50
2023-02-24T12:44:27.934Z,5.70
2023-02-24T12:46:36.077Z,5.70
2023-02-24T12:49:02.240Z,8.40
2023-02-24T12:51:14.276Z,9.90
2023-02-24T12:53:22.909Z,7.20
2023-02-24T12:55:37.594Z,13.10
2023-02-24T12:57:50.122Z,5.70
2023-02-24T12:59:58.058Z,6.40
2023-02-24T13:02:11.515Z,12.10
2023-02-24T13:04:29.448Z,7.00
2023-02-24T13:06:48.597Z,7.10
2023-02-24T13:09:02.517Z,6.90
2023-02-24T13:11:17.637Z,6.50
2023-02-24T13:13:31.533Z,5.30
2023-02-24T13:15:39.071Z,4.80
2023-02-24T13:17:49.456Z,9.00
2023-02-24T13:19:55.659Z,10.00
2023-02-24T13:22:06.822Z,7.20
2023-02-24T13:24:24.414Z,8.50
2023-02-24T13:26:31.710Z,5.70
2023-02-24T13:28:38.157Z,6.10
2023-02-24T13:30:44.510Z,6.20
2023-02-24T13:33:01.956Z,7.60
2023-02-24T13:35:35.268Z,6.30
2023-02-24T13:37:46.038Z,7.70
2023-02-24T13:39:50.792Z,8.30
2023-02-24T13:42:17.674Z,7.90
2023-02-24T13:44:29.838Z,9.90
2023-02-24T13:46:52.283Z,5.10
2023-02-24T13:49:07.359Z,5.60
2023-02-24T13:51:49.757Z,3.70
2023-02-24T13:54:10.366Z,5.00
2023-02-24T13:56:36.494Z,4.40
2023-02-24T13:59:01.970Z,4.80
2023-02-24T14:01:10.897Z,3.40
2023-02-24T14:03:24.311Z,2.90
2023-02-24T14:05:34.959Z,2.90
2023-02-24T14:07:42.721Z,3.50
2023-02-24T14:09:58.231Z,2.90
2023-02-24T14:12:12.645Z,3.20
2023-02-24T14:14:20.618Z,2.70
2023-02-24T14:16:27.795Z,2.50
2023-02-24T14:18:32.720Z,2.90
2023-02-24T14:20:39.264Z,3.00
2023-02-24T14:22:48.262Z,3.00
2023-02-24T14:25:02.772Z,3.30
2023-02-24T14:27:07.766Z,3.10
2023-02-24T14:29:16.177Z,3.30
2023-02-24T14:31:24.385Z,4.50
2023-02-24T14:33:33.446Z,4.30
2023-02-24T14:35:42.473Z,4.50
2023-02-24T14:37:47.158Z,4.00
2023-02-24T14:39:59.544Z,4.00
2023-02-24T14:42:14.870Z,4.00
2023-02-24T14:44:24.931Z,3.30
2023-02-24T14:46:29.934Z,3.20
2023-02-24T14:48:39.269Z,4.00
2023-02-24T14:50:47.229Z,3.60
2023-02-24T14:52:53.718Z,4.00
2023-02-24T14:55:02.403Z,3.60
2023-02-24T14:57:11.611Z,3.70
2023-02-24T14:59:27.866Z,3.30
2023-02-24T15:01:38.060Z,3.70
2023-02-24T15:03:51.229Z,4.40
2023-02-24T15:05:59.500Z,4.60
2023-02-24T15:08:04.973Z,3.50
2023-02-24T15:10:21.340Z,4.20
2023-02-24T15:12:32.457Z,4.40
2023-02-24T15:14:37.306Z,4.10
2023-02-24T15:16:45.442Z,3.70
2023-02-24T15:18:58.860Z,3.90
2023-02-24T15:21:08.201Z,3.90
2023-02-24T15:23:29.485Z,4.00
2023-02-24T15:25:46.321Z,4.40
2023-02-24T15:27:56.768Z,4.60
2023-02-24T15:30:08.832Z,4.00
2023-02-24T15:32:18.966Z,3.70
2023-02-24T15:34:27.351Z,4.20
2023-02-24T15:36:35.140Z,4.30
2023-02-24T15:38:45.181Z,4.90
2023-02-24T15:40:57.120Z,5.00
2023-02-24T15:43:10.534Z,4.00
2023-02-24T15:45:28.884Z,4.50
2023-02-24T15:47:44.844Z,4.60
2023-02-24T15:49:52.833Z,4.60
2023-02-24T15:51:58.335Z,4.40
2023-02-24T15:54:05.120Z,4.70
2023-02-24T15:56:10.258Z,4.70
2023-02-24T15:58:20.529Z,4.40
2023-02-24T16:00:27.889Z,4.40
2023-02-24T16:02:36.782Z,4.60
2023-02-24T16:04:42.124Z,4.70
2023-02-24T16:06:49.595Z,5.00
2023-02-24T16:08:57.658Z,4.80
2023-02-24T16:11:03.467Z,5.90
2023-02-24T16:13:14.775Z,6.60
2023-02-24T16:15:25.701Z,5.50
2023-02-24T16:17:38.747Z,4.10
2023-02-24T16:19:45.729Z,4.50
2023-02-24T16:21:51.399Z,4.30
2023-02-24T16:23:56.685Z,4.20
2023-02-24T16:26:02.032Z,6.40
2023-02-24T16:28:10.732Z,5.20
2023-02-24T16:30:24.020Z,5.70
2023-02-24T16:32:29.450Z,6.00
2023-02-24T16:34:36.998Z,4.70
2023-02-24T16:36:45.096Z,4.30
2023-02-24T16:38:50.188Z,4.10
2023-02-24T16:40:57.540Z,4.40
2023-02-24T16:43:03.274Z,4.80
2023-02-24T16:45:10.850Z,8.10
2023-02-24T16:47:18.584Z,10.60
2023-02-24T16:49:23.619Z,13.30
2023-02-24T16:51:28.566Z,7.50
2023-02-24T16:53:34.803Z,8.90
2023-02-24T16:55:39.569Z,9.40
2023-02-24T16:57:45.551Z,8.10
2023-02-24T16:59:50.926Z,8.00
2023-02-24T17:01:57.896Z,7.60
2023-02-24T17:04:06.198Z,7.00
2023-02-24T17:06:11.875Z,6.20
2023-02-24T17:08:18.894Z,6.40
2023-02-24T17:10:25.004Z,6.60
2023-02-24T17:12:32.352Z,6.50
2023-02-24T17:14:38.667Z,5.00
2023-02-24T17:16:44.413Z,4.70
2023-02-24T17:18:51.081Z,6.10
2023-02-24T17:20:57.039Z,6.00
2023-02-24T17:23:02.767Z,5.20
2023-02-24T17:25:15.104Z,6.00
2023-02-24T17:27:28.561Z,5.50
2023-02-24T17:29:33.986Z,6.30
2023-02-24T17:31:41.943Z,6.70
2023-02-24T17:33:47.681Z,7.30
2023-02-24T17:35:53.552Z,6.90
2023-02-24T17:38:01.004Z,5.60
2023-02-24T17:40:07.701Z,6.50
2023-02-24T17:42:14.172Z,7.60
2023-02-24T17:44:19.677Z,8.70
2023-02-24T17:46:30.792Z,5.80
2023-02-24T17:48:37.097Z,5.50
2023-02-24T17:50:46.968Z,6.00
2023-02-24T17:52:53.171Z,5.90
2023-02-24T17:55:00.090Z,7.40
2023-02-24T17:57:07.578Z,6.90
2023-02-24T17:59:12.800Z,6.20
2023-02-24T18:01:18.711Z,6.00
2023-02-24T18:03:26.290Z,6.20
2023-02-24T18:05:33.081Z,6.10
2023-02-24T18:07:39.401Z,8.30
2023-02-24T18:09:46.806Z,7.20
2023-02-24T18:11:53.989Z,7.20
2023-02-24T18:14:01.277Z,8.00
2023-02-24T18:16:12.650Z,5.90
2023-02-24T18:18:19.864Z,7.30
2023-02-24T18:20:26.259Z,5.40
2023-02-24T18:22:34.746Z,6.20
2023-02-24T18:24:41.227Z,5.50
2023-02-24T18:26:48.555Z,5.20
2023-02-24T18:28:55.724Z,6.00
2023-02-24T18:31:09.829Z,6.40
2023-02-24T18:33:18.659Z,5.50
2023-02-24T18:35:27.565Z,5.70
2023-02-24T18:37:34.492Z,5.60
2023-02-24T18:39:41.058Z,5.70
2023-02-24T18:41:52.711Z,5.90
2023-02-24T18:44:00.140Z,5.30
2023-02-24T18:46:08.961Z,5.50
2023-02-24T18:48:14.855Z,5.50
2023-02-24T18:50:33.124Z,5.10
2023-02-24T18:52:39.433Z,5.80
2023-02-24T18:54:49.793Z,5.70
2023-02-24T18:56:57.968Z,5.70
2023-02-24T18:59:04.633Z,5.50
2023-02-24T19:01:22.108Z,5.50
2023-02-24T19:03:28.167Z,5.80
2023-02-24T19:05:39.028Z,5.80
2023-02-24T19:07:49.591Z,5.50
2023-02-24T19:09:57.731Z,5.50
2023-02-24T19:12:08.448Z,6.40
2023-02-24T19:14:20.600Z,6.00
2023-02-24T19:16:37.677Z,6.10
2023-02-24T19:18:44.533Z,5.60
2023-02-24T19:20:50.010Z,5.60
2023-02-24T19:22:58.092Z,5.50
2023-02-24T19:25:06.427Z,5.10
2023-02-24T19:27:16.733Z,6.50
2023-02-24T19:29:22.738Z,5.60
2023-02-24T19:31:31.253Z,6.30
2023-02-24T19:33:37.328Z,5.70
2023-02-24T19:35:46.394Z,6.20
2023-02-24T19:37:56.441Z,6.30
2023-02-24T19:40:08.499Z,6.60
2023-02-24T19:42:15.831Z,7.40
2023-02-24T19:44:22.862Z,7.50
2023-02-24T19:46:28.467Z,7.60
2023-02-24T19:48:38.633Z,6.80
2023-02-24T19:50:47.750Z,7.70
2023-02-24T19:52:53.856Z,8.10
2023-02-24T19:54:59.071Z,8.00
2023-02-24T19:57:10.208Z,7.70
2023-02-24T19:59:21.674Z,7.50
2023-02-24T20:01:29.284Z,7.60
2023-02-24T20:03:36.535Z,7.30
2023-02-24T20:05:46.770Z,7.50
2023-02-24T20:07:53.601Z,6.90
2023-02-24T20:10:03.640Z,7.40
2023-02-24T20:12:09.218Z,7.50
2023-02-24T20:14:16.304Z,7.80
2023-02-24T20:16:27.328Z,7.30
2023-02-24T20:18:34.225Z,6.80
2023-02-24T20:20:40.769Z,6.50
2023-02-24T20:22:49.802Z,6.90
2023-02-24T20:24:56.170Z,7.10
2023-02-24T20:27:13.379Z,6.90
2023-02-24T20:29:22.160Z,6.50
2023-02-24T20:31:32.247Z,5.80
2023-02-24T20:33:39.282Z,5.50
2023-02-24T20:36:00.353Z,4.50
2023-02-24T20:38:07.734Z,4.10
2023-02-24T20:40:14.828Z,4.10
2023-02-24T20:42:21.483Z,3.60
2023-02-24T20:44:29.571Z,3.70
2023-02-24T20:46:40.756Z,3.30
2023-02-24T20:48:47.917Z,3.00
2023-02-24T20:50:58.122Z,3.10
2023-02-24T20:53:05.726Z,2.70
2023-02-24T20:55:15.097Z,3.00
2023-02-24T20:57:21.214Z,2.80
2023-02-24T20:59:27.218Z,2.60
2023-02-24T21:01:36.770Z,2.50
2023-02-24T21:03:43.736Z,3.00
2023-02-24T21:06:01.559Z,2.50
2023-02-24T21:08:17.362Z,2.10
2023-02-24T21:10:23.113Z,2.10
2023-02-24T21:12:28.991Z,2.10
2023-02-24T21:14:34.444Z,1.90
2023-02-24T21:16:40.930Z,2.40
2023-02-24T21:18:50.179Z,2.10
2023-02-24T21:20:55.133Z,2.10
2023-02-24T21:23:02.259Z,1.60
2023-02-24T21:25:08.355Z,1.90
2023-02-24T21:27:13.447Z,1.60
2023-02-24T21:29:19.450Z,1.90
2023-02-24T21:31:24.860Z,1.80
2023-02-24T21:33:30.523Z,1.50
2023-02-24T21:35:35.576Z,1.70
2023-02-24T21:37:40.627Z,1.40
2023-02-24T21:39:45.977Z,1.40
2023-02-24T21:41:51.276Z,1.30
2023-02-24T21:44:00.272Z,1.60
2023-02-24T21:46:06.844Z,2.30
2023-02-24T21:48:12.234Z,1.80
2023-02-24T21:50:18.827Z,2.20
2023-02-24T21:52:26.123Z,2.10
2023-02-24T21:54:32.204Z,1.90
2023-02-24T21:56:37.137Z,1.20
2023-02-24T21:58:42.812Z,1.50
2023-02-24T22:00:48.870Z,1.20
2023-02-24T22:02:55.842Z,1.80
2023-02-24T22:05:00.973Z,1.70
2023-02-24T22:07:06.920Z,1.60
2023-02-24T22:09:13.948Z,1.80
2023-02-24T22:11:19.421Z,1.60
2023-02-24T22:13:24.150Z,1.80
2023-02-24T22:15:28.957Z,1.50
2023-02-24T22:17:35.892Z,1.70
2023-02-24T22:19:41.080Z,1.60
2023-02-24T22:21:46.044Z,1.50
2023-02-24T22:23:52.377Z,1.40
2023-02-24T22:25:57.016Z,1.90
2023-02-24T22:28:01.728Z,1.30
2023-02-24T22:30:08.901Z,1.80
2023-02-24T22:32:13.634Z,1.30
2023-02-24T22:34:18.463Z,1.60
2023-02-24T22:36:25.196Z,1.80
2023-02-24T22:38:31.845Z,1.90
2023-02-24T22:40:36.458Z,1.90
2023-02-24T22:42:41.705Z,1.60
2023-02-24T22:44:46.618Z,1.40
2023-02-24T22:46:51.441Z,1.30
2023-02-24T22:48:56.944Z,1.50
2023-02-24T22:51:02.825Z,1.80
2023-02-24T22:53:07.485Z,1.70
2023-02-24T22:55:13.207Z,1.70
2023-02-24T22:57:17.845Z,1.80
2023-02-24T22:59:22.500Z,1.80
2023-02-24T23:01:30.767Z,1.50
2023-02-24T23:03:35.524Z,1.70
2023-02-24T23:05:41.557Z,1.40
2023-02-24T23:07:46.252Z,1.80
2023-02-24T23:09:51.004Z,1.60
2023-02-24T23:11:55.753Z,2.20
2023-02-24T23:14:02.384Z,1.50
2023-02-24T23:16:10.232Z,1.60
2023-02-24T23:18:15.361Z,1.30
2023-02-24T23:20:20.645Z,1.50
2023-02-24T23:22:25.448Z,1.30
2023-02-24T23:24:30.146Z,1.60
2023-02-24T23:26:36.963Z,1.60
2023-02-24T23:28:42.026Z,1.40
2023-02-24T23:30:46.760Z,1.20
2023-02-24T23:32:51.540Z,1.30
2023-02-24T23:34:56.765Z,1.00
2023-02-24T23:37:01.449Z,1.10
2023-02-24T23:39:07.469Z,1.40
2023-02-24T23:41:13.196Z,0.90
2023-02-24T23:43:23.989Z,1.30
2023-02-24T23:45:31.308Z,1.00
2023-02-24T23:47:36.300Z,1.00
2023-02-24T23:49:48.511Z,1.10
2023-02-24T23:51:53.362Z,1.00
2023-02-24T23:53:58.365Z,0.90
2023-02-24T23:56:08.102Z,0.80
2023-02-24T23:58:12.787Z,1.00
